Neghelli, Ethiopia
Current Conditions -  °F | °C
As of 11:00 AM on Monday 24 Nov 2014 (Local Time) from HKEL Reporting Station
Broken Clouds Broken Clouds  
Wind Chill: 72°   Ceiling: 2400
Heat Index: 72°   Visibility: 6mi
Dew Point: 57°   Wind: 1mph
Humidity: 60%   Direction: NA
Pressure: 30.27"   Gusts: NA
Location:  5.28°N, 39.7°E
Report Text: HKEL 240800Z VRB01KT 9999 FEW023CB BKN024 22/14 Q1025
Loading
Personal Weather Stations






























Interactive Weather Map New forecast layout! Learn more

10-Day Weather Forecast

Advertisements
Track Severe Weather on mobile